Time;durP1;ratioP1;P1;durP2;ratioP2;P2;SDS_P1;SDS_P2;PMS_P1;PMS_P2;Temp;Humidity;BMP_temperature;BMP_pressure;BME280_temperature;BME280_humidity;BME280_pressure;Samples;Min_cycle;Max_cycle;Signal;HPM_P1;HPM_P2
2023/12/11 00:00:21;;;;;;;0.40;0.40;;;;;;;;;;5016303;28;20083;-86
2023/12/11 00:02:47;;;;;;;0.32;0.30;;;;;;;;;;5000351;28;20029;-86
2023/12/11 00:05:12;;;;;;;0.30;0.30;;;;;;;;;;5017806;28;20524;-86
2023/12/11 00:07:37;;;;;;;0.28;0.28;;;;;;;;;;5023192;28;20053;-87
2023/12/11 00:10:03;;;;;;;1.30;0.47;;;;;;;;;;5021523;28;20097;-87
2023/12/11 00:12:28;;;;;;;0.45;0.45;;;;;;;;;;5017876;28;20049;-87
2023/12/11 00:14:53;;;;;;;0.40;0.40;;;;;;;;;;5001532;28;20075;-84
2023/12/11 00:17:19;;;;;;;0.68;0.30;;;;;;;;;;5020394;28;20498;-85
2023/12/11 00:19:44;;;;;;;0.40;0.40;;;;;;;;;;5025906;28;20052;-87
2023/12/11 00:22:09;;;;;;;0.40;0.40;;;;;;;;;;5025509;28;20041;-87
2023/12/11 00:24:34;;;;;;;0.50;0.50;;;;;;;;;;5030150;28;20026;-86
2023/12/11 00:27:00;;;;;;;2.65;0.40;;;;;;;;;;5023132;28;20397;-89
2023/12/11 00:29:25;;;;;;;0.40;0.40;;;;;;;;;;5000101;28;20033;-87
2023/12/11 00:31:50;;;;;;;0.60;0.60;;;;;;;;;;4999238;28;20069;-85
2023/12/11 00:34:16;;;;;;;1.33;0.80;;;;;;;;;;4999282;28;20030;-86
2023/12/11 00:36:42;;;;;;;0.40;0.40;;;;;;;;;;5000060;28;20448;-86
2023/12/11 00:39:08;;;;;;;1.23;0.30;;;;;;;;;;5016587;28;20053;-86
2023/12/11 00:41:33;;;;;;;0.40;0.40;;;;;;;;;;5000111;28;20010;-87
2023/12/11 00:43:58;;;;;;;0.47;0.47;;;;;;;;;;5018186;28;20038;-86
2023/12/11 00:46:24;;;;;;;0.65;0.57;;;;;;;;;;5001150;28;20034;-85
2023/12/11 00:48:50;;;;;;;0.40;0.40;;;;;;;;;;5017734;28;20034;-85
2023/12/11 00:51:19;;;;;;;0.40;0.40;;;;;;;;;;5000103;28;20486;-87
2023/12/11 00:53:46;;;;;;;1.13;0.63;;;;;;;;;;5018933;28;20033;-87
2023/12/11 00:56:12;;;;;;;0.60;0.60;;;;;;;;;;5017449;28;20448;-84
2023/12/11 00:58:37;;;;;;;0.55;0.55;;;;;;;;;;5000509;28;20176;-86
2023/12/11 01:01:02;;;;;;;3.15;0.60;;;;;;;;;;5017374;28;20402;-86
2023/12/11 01:03:28;;;;;;;3.05;0.57;;;;;;;;;;5018914;28;20034;-86
2023/12/11 01:05:53;;;;;;;0.50;0.50;;;;;;;;;;5012542;28;20035;-86
2023/12/11 01:08:18;;;;;;;0.50;0.50;;;;;;;;;;5037951;28;20382;-84
2023/12/11 01:10:43;;;;;;;0.50;0.50;;;;;;;;;;5035696;28;20120;-84
2023/12/11 01:13:09;;;;;;;0.30;0.30;;;;;;;;;;5017381;28;20033;-84
2023/12/11 01:17:59;;;;;;;0.50;0.50;;;;;;;;;;5045923;23;20111;-80
2023/12/11 01:20:25;;;;;;;0.30;0.30;;;;;;;;;;5025100;28;20038;-80
2023/12/11 01:22:50;;;;;;;0.50;0.50;;;;;;;;;;5028746;28;20168;-79
2023/12/11 01:25:16;;;;;;;1.13;0.35;;;;;;;;;;5027330;28;20025;-79
2023/12/11 01:27:41;;;;;;;0.70;0.47;;;;;;;;;;5018452;28;20034;-79
2023/12/11 01:30:06;;;;;;;0.45;0.45;;;;;;;;;;5019570;28;20029;-76
2023/12/11 01:32:32;;;;;;;0.40;0.40;;;;;;;;;;5026890;28;20125;-77
2023/12/11 01:34:57;;;;;;;0.55;0.55;;;;;;;;;;5012016;28;20117;-76
2023/12/11 01:37:22;;;;;;;0.60;0.60;;;;;;;;;;5024118;28;20033;-79
2023/12/11 01:39:48;;;;;;;0.57;0.57;;;;;;;;;;5029113;28;20457;-79
2023/12/11 01:42:13;;;;;;;0.38;0.38;;;;;;;;;;5028259;28;20021;-79
2023/12/11 01:44:38;;;;;;;0.40;0.40;;;;;;;;;;5012308;28;20077;-79
2023/12/11 01:47:05;;;;;;;0.73;0.47;;;;;;;;;;5013195;28;20508;-79
2023/12/11 01:49:30;;;;;;;0.55;0.50;;;;;;;;;;5011881;28;20064;-79
2023/12/11 01:51:56;;;;;;;0.40;0.40;;;;;;;;;;5011210;28;20042;-80
2023/12/11 01:54:22;;;;;;;0.30;0.30;;;;;;;;;;5009719;28;20088;-79
2023/12/11 01:56:47;;;;;;;1.40;0.90;;;;;;;;;;5018193;28;20277;-79
2023/12/11 01:59:13;;;;;;;0.30;0.30;;;;;;;;;;5023195;28;20075;-79
2023/12/11 02:01:40;;;;;;;0.75;0.68;;;;;;;;;;5026300;28;20044;-79
2023/12/11 02:04:07;;;;;;;0.50;0.50;;;;;;;;;;5016338;28;20029;-79
2023/12/11 02:06:33;;;;;;;1.10;0.52;;;;;;;;;;5023818;28;20025;-79
2023/12/11 02:08:58;;;;;;;0.80;0.52;;;;;;;;;;5017457;28;20102;-79
2023/12/11 02:11:24;;;;;;;0.40;0.40;;;;;;;;;;5031655;28;20068;-79
2023/12/11 02:13:49;;;;;;;0.57;0.57;;;;;;;;;;5031483;28;20030;-79
2023/12/11 02:16:15;;;;;;;0.52;0.52;;;;;;;;;;5032180;28;20076;-79
2023/12/11 02:18:41;;;;;;;1.17;0.75;;;;;;;;;;5022989;28;20422;-79
2023/12/11 02:21:07;;;;;;;0.35;0.35;;;;;;;;;;5033181;28;20021;-80
2023/12/11 02:23:35;;;;;;;0.20;0.20;;;;;;;;;;5025894;28;20021;-79
2023/12/11 02:26:13;;;;;;;0.70;0.50;;;;;;;;;;5019391;28;20486;-79
2023/12/11 02:28:39;;;;;;;2.17;0.45;;;;;;;;;;5031378;28;20593;-80
2023/12/11 02:31:04;;;;;;;0.40;0.40;;;;;;;;;;5027525;28;20190;-80
2023/12/11 02:33:30;;;;;;;0.40;0.40;;;;;;;;;;5032597;28;20037;-80
2023/12/11 02:35:55;;;;;;;1.48;0.50;;;;;;;;;;5033388;28;20013;-80
2023/12/11 02:38:21;;;;;;;0.65;0.60;;;;;;;;;;5026328;28;20030;-80
2023/12/11 02:40:46;;;;;;;0.43;0.43;;;;;;;;;;5024714;28;20378;-80
2023/12/11 02:43:11;;;;;;;0.40;0.40;;;;;;;;;;5033085;28;20057;-80
2023/12/11 02:45:36;;;;;;;0.50;0.50;;;;;;;;;;5031339;28;20524;-79
2023/12/11 02:48:02;;;;;;;0.50;0.50;;;;;;;;;;5035800;28;20036;-79
2023/12/11 02:50:31;;;;;;;0.50;0.50;;;;;;;;;;5017801;28;20120;-80
2023/12/11 02:52:58;;;;;;;0.90;0.57;;;;;;;;;;5034366;28;20068;-79
2023/12/11 02:55:23;;;;;;;2.38;0.93;;;;;;;;;;5008097;28;20041;-79
2023/12/11 02:57:48;;;;;;;1.42;0.60;;;;;;;;;;5023908;28;20038;-79
2023/12/11 03:00:14;;;;;;;0.40;0.40;;;;;;;;;;5034409;28;20228;-79
2023/12/11 03:02:39;;;;;;;1.23;0.43;;;;;;;;;;5033233;28;20032;-79
2023/12/11 03:05:04;;;;;;;0.50;0.50;;;;;;;;;;5034222;28;20060;-79
2023/12/11 03:07:29;;;;;;;0.60;0.60;;;;;;;;;;5029413;28;20053;-79
2023/12/11 03:09:55;;;;;;;2.22;0.50;;;;;;;;;;5021786;28;20025;-79
2023/12/11 03:12:20;;;;;;;0.60;0.60;;;;;;;;;;5033552;28;20548;-79
2023/12/11 03:14:45;;;;;;;0.68;0.68;;;;;;;;;;5033037;28;20026;-79
2023/12/11 03:17:10;;;;;;;0.45;0.45;;;;;;;;;;5032355;28;20037;-79
2023/12/11 03:19:36;;;;;;;1.15;0.45;;;;;;;;;;5032246;28;20042;-79
2023/12/11 03:22:01;;;;;;;0.50;0.50;;;;;;;;;;5031735;28;20033;-78
2023/12/11 03:24:26;;;;;;;0.60;0.57;;;;;;;;;;5027329;28;20509;-78
2023/12/11 03:26:51;;;;;;;0.73;0.73;;;;;;;;;;5030954;28;20021;-78
2023/12/11 03:29:17;;;;;;;0.70;0.70;;;;;;;;;;5013477;28;20040;-78
2023/12/11 03:31:42;;;;;;;0.60;0.60;;;;;;;;;;5012573;28;20091;-78
2023/12/11 03:34:07;;;;;;;0.40;0.40;;;;;;;;;;5030427;28;20044;-78
2023/12/11 03:36:32;;;;;;;0.60;0.60;;;;;;;;;;5030525;28;20083;-78
2023/12/11 03:38:58;;;;;;;0.57;0.57;;;;;;;;;;5030678;28;20048;-77
2023/12/11 03:41:23;;;;;;;0.77;0.63;;;;;;;;;;5028945;28;20028;-77
2023/12/11 03:43:48;;;;;;;1.45;0.65;;;;;;;;;;5030362;28;20406;-77
2023/12/11 03:46:14;;;;;;;0.50;0.50;;;;;;;;;;5029604;28;20034;-77
2023/12/11 03:48:39;;;;;;;2.47;0.60;;;;;;;;;;5028943;28;20637;-77
2023/12/11 03:51:04;;;;;;;1.27;0.70;;;;;;;;;;5029944;28;20033;-77
2023/12/11 03:53:29;;;;;;;0.82;0.60;;;;;;;;;;5030331;28;20032;-77
2023/12/11 03:55:55;;;;;;;1.10;0.47;;;;;;;;;;5029654;28;20041;-77
2023/12/11 03:58:20;;;;;;;0.40;0.40;;;;;;;;;;5030168;28;20034;-78
2023/12/11 04:00:45;;;;;;;0.60;0.57;;;;;;;;;;5029283;28;20048;-77
2023/12/11 04:03:11;;;;;;;0.68;0.63;;;;;;;;;;5029396;28;20017;-77
2023/12/11 04:05:36;;;;;;;0.60;0.60;;;;;;;;;;5029516;28;20060;-77
2023/12/11 04:08:01;;;;;;;1.65;0.75;;;;;;;;;;5026496;28;20524;-77
2023/12/11 04:10:27;;;;;;;1.50;0.60;;;;;;;;;;5022109;28;20105;-77
2023/12/11 04:12:52;;;;;;;0.70;0.55;;;;;;;;;;5029380;28;20133;-78
2023/12/11 04:15:17;;;;;;;0.60;0.60;;;;;;;;;;5028314;28;20064;-77
2023/12/11 04:17:43;;;;;;;0.52;0.52;;;;;;;;;;5027463;28;20071;-78
2023/12/11 04:20:09;;;;;;;1.42;0.70;;;;;;;;;;5029455;28;20029;-77
2023/12/11 04:22:34;;;;;;;0.60;0.60;;;;;;;;;;5029538;28;20040;-78
2023/12/11 04:24:59;;;;;;;0.40;0.40;;;;;;;;;;5003128;28;20041;-78
2023/12/11 04:27:25;;;;;;;2.53;0.50;;;;;;;;;;5021360;28;20041;-77
2023/12/11 04:29:50;;;;;;;0.40;0.40;;;;;;;;;;5030118;28;20366;-78
2023/12/11 04:32:15;;;;;;;3.78;0.60;;;;;;;;;;5001169;28;20114;-77
2023/12/11 04:34:41;;;;;;;1.17;0.50;;;;;;;;;;5023543;28;20069;-77
2023/12/11 04:37:06;;;;;;;0.30;0.30;;;;;;;;;;5029395;28;20029;-77
2023/12/11 04:39:31;;;;;;;0.50;0.50;;;;;;;;;;5027540;28;20041;-77
2023/12/11 04:41:56;;;;;;;0.47;0.47;;;;;;;;;;5019361;28;20017;-77
2023/12/11 04:44:22;;;;;;;0.30;0.30;;;;;;;;;;5028938;28;20041;-77
2023/12/11 04:46:47;;;;;;;0.52;0.52;;;;;;;;;;5023536;28;20053;-77
2023/12/11 04:49:12;;;;;;;0.60;0.60;;;;;;;;;;5022756;28;20036;-77
2023/12/11 04:51:38;;;;;;;0.60;0.50;;;;;;;;;;5011382;28;20049;-77
2023/12/11 04:54:03;;;;;;;0.50;0.50;;;;;;;;;;5022987;28;20373;-77
2023/12/11 04:56:28;;;;;;;0.57;0.43;;;;;;;;;;5024689;28;20041;-77
2023/12/11 04:58:54;;;;;;;0.50;0.50;;;;;;;;;;5026714;28;20033;-77
2023/12/11 05:01:19;;;;;;;0.50;0.50;;;;;;;;;;5029123;28;20575;-77
2023/12/11 05:03:44;;;;;;;0.50;0.50;;;;;;;;;;5029335;28;20030;-77
2023/12/11 05:06:10;;;;;;;0.50;0.50;;;;;;;;;;5011658;28;20036;-77
2023/12/11 05:08:35;;;;;;;0.40;0.40;;;;;;;;;;5011755;28;20032;-77
2023/12/11 05:11:01;;;;;;;0.40;0.40;;;;;;;;;;5024531;28;20033;-77
2023/12/11 05:13:26;;;;;;;0.30;0.30;;;;;;;;;;5023110;28;20038;-77
2023/12/11 05:15:51;;;;;;;0.40;0.40;;;;;;;;;;5026834;28;20041;-77
2023/12/11 05:18:16;;;;;;;0.50;0.50;;;;;;;;;;5022513;28;20033;-77
2023/12/11 05:20:42;;;;;;;0.77;0.77;;;;;;;;;;5021276;28;20549;-77
2023/12/11 05:23:07;;;;;;;0.45;0.45;;;;;;;;;;5020848;28;20128;-77
2023/12/11 05:25:32;;;;;;;0.50;0.40;;;;;;;;;;5021833;28;20054;-77
2023/12/11 05:27:58;;;;;;;0.50;0.50;;;;;;;;;;5029453;28;20137;-77
2023/12/11 05:30:23;;;;;;;0.50;0.50;;;;;;;;;;5020969;28;20040;-77
2023/12/11 05:32:48;;;;;;;0.40;0.40;;;;;;;;;;5021215;28;20022;-77
2023/12/11 05:35:13;;;;;;;0.50;0.50;;;;;;;;;;5023011;28;20493;-78
2023/12/11 05:37:39;;;;;;;0.45;0.45;;;;;;;;;;5017923;28;20041;-78
2023/12/11 05:40:05;;;;;;;0.50;0.50;;;;;;;;;;5020515;28;20120;-78
2023/12/11 05:42:31;;;;;;;1.00;0.50;;;;;;;;;;5021790;28;20037;-77
2023/12/11 05:44:56;;;;;;;0.52;0.50;;;;;;;;;;5005059;28;20036;-77
2023/12/11 05:47:21;;;;;;;0.57;0.57;;;;;;;;;;5016399;28;20030;-77
2023/12/11 05:49:47;;;;;;;0.57;0.57;;;;;;;;;;5022274;28;20469;-78
2023/12/11 05:52:12;;;;;;;0.60;0.60;;;;;;;;;;5019021;28;20034;-78
2023/12/11 05:54:37;;;;;;;0.95;0.70;;;;;;;;;;5013486;28;20100;-78
2023/12/11 05:57:03;;;;;;;0.57;0.57;;;;;;;;;;5023407;28;20029;-78
2023/12/11 05:59:28;;;;;;;2.72;0.40;;;;;;;;;;5008743;28;20056;-77
2023/12/11 06:01:53;;;;;;;0.57;0.57;;;;;;;;;;5017447;28;20034;-77
2023/12/11 06:04:18;;;;;;;1.95;0.52;;;;;;;;;;5022429;28;20394;-77
2023/12/11 06:06:44;;;;;;;0.68;0.50;;;;;;;;;;5021934;28;20041;-77
2023/12/11 06:09:09;;;;;;;1.15;0.70;;;;;;;;;;5006350;28;20033;-77
2023/12/11 06:11:34;;;;;;;1.20;0.60;;;;;;;;;;5007445;28;20037;-78
2023/12/11 06:14:00;;;;;;;1.55;0.40;;;;;;;;;;5020951;28;20111;-78
2023/12/11 06:16:25;;;;;;;0.50;0.50;;;;;;;;;;5017330;28;20057;-78
2023/12/11 06:18:50;;;;;;;0.30;0.30;;;;;;;;;;5017731;28;20133;-78
2023/12/11 06:21:21;;;;;;;1.98;0.40;;;;;;;;;;5014323;28;20025;-78
2023/12/11 06:23:47;;;;;;;0.85;0.50;;;;;;;;;;5005323;28;20034;-78
2023/12/11 06:26:29;;;;;;;0.60;0.52;;;;;;;;;;5015273;28;20034;-78
2023/12/11 06:28:54;;;;;;;0.73;0.60;;;;;;;;;;5020603;28;20037;-78
2023/12/11 06:31:20;;;;;;;0.28;0.28;;;;;;;;;;5011754;28;20072;-78
2023/12/11 06:33:45;;;;;;;0.28;0.28;;;;;;;;;;5022417;28;20045;-78
2023/12/11 06:36:10;;;;;;;0.63;0.40;;;;;;;;;;5027631;28;20033;-78
2023/12/11 06:38:36;;;;;;;0.40;0.40;;;;;;;;;;5025844;28;20474;-78
2023/12/11 06:41:02;;;;;;;0.40;0.40;;;;;;;;;;5021432;28;20042;-78
2023/12/11 06:43:27;;;;;;;0.40;0.40;;;;;;;;;;5021234;28;20044;-78
2023/12/11 06:45:52;;;;;;;0.77;0.40;;;;;;;;;;5017790;28;20034;-78
2023/12/11 06:48:17;;;;;;;0.85;0.45;;;;;;;;;;5000311;28;20527;-78
2023/12/11 06:50:43;;;;;;;0.50;0.50;;;;;;;;;;4988920;28;20026;-79
2023/12/11 06:53:08;;;;;;;0.50;0.50;;;;;;;;;;4996780;28;20074;-78
2023/12/11 06:55:35;;;;;;;1.00;0.45;;;;;;;;;;5002487;28;20053;-78
2023/12/11 06:58:00;;;;;;;0.40;0.40;;;;;;;;;;4999168;28;20041;-78
2023/12/11 07:00:26;;;;;;;0.80;0.55;;;;;;;;;;4987647;28;20038;-78
2023/12/11 07:02:52;;;;;;;0.43;0.43;;;;;;;;;;5005887;28;20026;-79
2023/12/11 07:05:17;;;;;;;0.40;0.40;;;;;;;;;;5009282;28;20034;-79
2023/12/11 07:07:42;;;;;;;0.47;0.47;;;;;;;;;;5011872;28;20571;-78
2023/12/11 07:10:08;;;;;;;0.47;0.47;;;;;;;;;;4998938;28;20386;-78
2023/12/11 07:12:35;;;;;;;0.60;0.60;;;;;;;;;;5006722;28;20054;-78
2023/12/11 07:15:01;;;;;;;0.50;0.50;;;;;;;;;;5012431;28;20100;-78
2023/12/11 07:17:26;;;;;;;1.02;0.50;;;;;;;;;;5002270;28;20134;-78
2023/12/11 07:19:51;;;;;;;0.60;0.60;;;;;;;;;;5007532;28;20039;-79
2023/12/11 07:22:16;;;;;;;0.38;0.38;;;;;;;;;;5007297;28;20390;-78
2023/12/11 07:24:42;;;;;;;0.30;0.30;;;;;;;;;;5009245;28;20037;-78
2023/12/11 07:27:07;;;;;;;0.20;0.20;;;;;;;;;;5015962;28;20034;-78
2023/12/11 07:29:32;;;;;;;0.50;0.50;;;;;;;;;;5019086;28;20474;-77
2023/12/11 07:31:58;;;;;;;3.08;0.50;;;;;;;;;;5020667;28;20409;-78
2023/12/11 07:34:23;;;;;;;0.40;0.40;;;;;;;;;;5000655;28;20069;-78
2023/12/11 07:36:51;;;;;;;0.32;0.32;;;;;;;;;;4992963;28;20064;-78
2023/12/11 07:39:16;;;;;;;1.08;0.40;;;;;;;;;;5017392;28;20022;-78
2023/12/11 07:41:41;;;;;;;1.23;1.13;;;;;;;;;;5017004;28;20018;-78
2023/12/11 07:44:07;;;;;;;0.50;0.50;;;;;;;;;;5013967;28;20026;-78
2023/12/11 07:46:33;;;;;;;0.40;0.40;;;;;;;;;;5004172;28;20046;-78
2023/12/11 07:48:58;;;;;;;0.30;0.30;;;;;;;;;;5014202;28;20053;-77
2023/12/11 07:51:24;;;;;;;0.40;0.40;;;;;;;;;;5018741;28;20041;-78
2023/12/11 07:53:50;;;;;;;0.40;0.40;;;;;;;;;;5019493;28;20537;-78
2023/12/11 07:56:22;;;;;;;0.47;0.47;;;;;;;;;;5032286;28;20094;-78
2023/12/11 07:58:49;;;;;;;0.40;0.40;;;;;;;;;;5032636;28;20622;-78
2023/12/11 08:01:15;;;;;;;1.17;0.45;;;;;;;;;;5034095;28;20033;-79
2023/12/11 08:03:40;;;;;;;0.30;0.30;;;;;;;;;;5033938;28;20048;-78
2023/12/11 08:06:08;;;;;;;0.50;0.50;;;;;;;;;;5033864;28;20040;-78
2023/12/11 08:08:35;;;;;;;0.40;0.40;;;;;;;;;;5034096;28;20438;-78
2023/12/11 08:11:00;;;;;;;0.65;0.45;;;;;;;;;;5033890;28;20029;-78
2023/12/11 08:13:25;;;;;;;4.75;0.95;;;;;;;;;;5033640;28;20120;-78
2023/12/11 08:15:51;;;;;;;3.20;0.52;;;;;;;;;;5033364;28;20040;-78
2023/12/11 08:18:16;;;;;;;0.40;0.40;;;;;;;;;;5034023;28;20410;-78
2023/12/11 08:20:41;;;;;;;0.55;0.52;;;;;;;;;;5034563;28;20055;-78
2023/12/11 08:23:07;;;;;;;0.43;0.43;;;;;;;;;;5021657;28;20053;-77
2023/12/11 08:25:32;;;;;;;0.43;0.43;;;;;;;;;;5013789;28;20033;-77
2023/12/11 08:27:57;;;;;;;0.50;0.50;;;;;;;;;;5015669;28;20038;-78
2023/12/11 08:30:23;;;;;;;0.80;0.55;;;;;;;;;;5034864;28;20037;-79
2023/12/11 08:32:48;;;;;;;0.30;0.30;;;;;;;;;;5036715;28;20028;-79
2023/12/11 08:35:13;;;;;;;1.45;0.40;;;;;;;;;;5036034;28;20041;-79
2023/12/11 08:37:39;;;;;;;0.40;0.40;;;;;;;;;;5037184;28;20549;-79
2023/12/11 08:40:05;;;;;;;0.95;0.50;;;;;;;;;;5037333;28;20041;-79
2023/12/11 08:42:32;;;;;;;0.22;0.22;;;;;;;;;;5033682;28;20060;-77
2023/12/11 08:44:57;;;;;;;0.40;0.40;;;;;;;;;;5033075;28;20029;-77
2023/12/11 08:47:22;;;;;;;0.52;0.52;;;;;;;;;;5018887;28;20037;-78
2023/12/11 08:49:48;;;;;;;0.47;0.47;;;;;;;;;;5012462;28;20121;-77
2023/12/11 08:52:13;;;;;;;0.50;0.50;;;;;;;;;;5012345;28;20069;-77
2023/12/11 08:54:39;;;;;;;0.38;0.38;;;;;;;;;;5021612;28;20437;-80
2023/12/11 08:57:04;;;;;;;0.43;0.43;;;;;;;;;;5014140;28;20109;-77
2023/12/11 08:59:30;;;;;;;0.38;0.38;;;;;;;;;;5020722;28;20021;-80
2023/12/11 09:01:57;;;;;;;0.95;0.50;;;;;;;;;;5034309;28;20033;-81
2023/12/11 09:04:22;;;;;;;0.40;0.40;;;;;;;;;;5014297;28;20563;-78
2023/12/11 09:06:47;;;;;;;0.38;0.38;;;;;;;;;;5025167;28;20033;-79
2023/12/11 09:09:13;;;;;;;0.52;0.52;;;;;;;;;;5010226;28;20487;-80
2023/12/11 09:11:39;;;;;;;0.52;0.52;;;;;;;;;;4995630;28;20041;-80
2023/12/11 09:14:04;;;;;;;0.50;0.50;;;;;;;;;;5011008;28;20359;-80
2023/12/11 09:16:29;;;;;;;0.57;0.50;;;;;;;;;;5015121;28;20038;-80
2023/12/11 09:18:54;;;;;;;1.55;0.55;;;;;;;;;;5034207;28;20469;-80
2023/12/11 09:21:22;;;;;;;0.47;0.47;;;;;;;;;;5025281;28;20033;-80
2023/12/11 09:23:47;;;;;;;0.70;0.70;;;;;;;;;;5041009;28;20405;-80
2023/12/11 09:26:13;;;;;;;0.50;0.50;;;;;;;;;;5042653;28;20034;-80
2023/12/11 09:28:39;;;;;;;1.10;0.63;;;;;;;;;;5042697;28;20128;-80
2023/12/11 09:31:04;;;;;;;0.70;0.70;;;;;;;;;;5042575;28;20033;-80
2023/12/11 09:33:30;;;;;;;0.60;0.60;;;;;;;;;;5043445;28;20029;-80
2023/12/11 09:35:56;;;;;;;0.70;0.70;;;;;;;;;;5044168;28;20017;-80
2023/12/11 09:38:21;;;;;;;0.65;0.65;;;;;;;;;;5042768;28;20112;-80
2023/12/11 09:40:46;;;;;;;1.05;0.65;;;;;;;;;;5042569;28;20033;-79
2023/12/11 09:43:12;;;;;;;0.90;0.55;;;;;;;;;;5040850;28;20513;-80
2023/12/11 09:45:39;;;;;;;0.50;0.50;;;;;;;;;;5034847;28;20033;-80
2023/12/11 09:48:04;;;;;;;0.70;0.70;;;;;;;;;;5024260;28;20029;-80
2023/12/11 09:50:30;;;;;;;1.20;0.60;;;;;;;;;;5035239;28;20025;-81
2023/12/11 09:52:56;;;;;;;2.83;0.70;;;;;;;;;;5022359;28;20382;-81
2023/12/11 09:55:22;;;;;;;0.80;0.80;;;;;;;;;;5008091;28;20049;-79
2023/12/11 09:57:47;;;;;;;1.35;0.90;;;;;;;;;;5033051;28;20037;-80
2023/12/11 10:00:14;;;;;;;1.02;0.80;;;;;;;;;;5014399;28;20021;-79
2023/12/11 10:02:40;;;;;;;0.98;0.90;;;;;;;;;;5023279;28;20026;-79
2023/12/11 10:05:09;;;;;;;1.55;0.60;;;;;;;;;;5023926;28;20053;-79
2023/12/11 10:07:36;;;;;;;1.85;0.70;;;;;;;;;;5024580;28;20065;-80
2023/12/11 10:10:27;;;;;;;1.50;0.80;;;;;;;;;;5021494;28;20406;-80
2023/12/11 10:12:56;;;;;;;0.80;0.80;;;;;;;;;;5022477;28;20061;-80
2023/12/11 10:15:26;;;;;;;0.70;0.70;;;;;;;;;;5026212;28;20030;-82
2023/12/11 10:18:12;;;;;;;1.13;0.40;;;;;;;;;;5038227;28;20025;-80
2023/12/11 10:20:40;;;;;;;0.40;0.40;;;;;;;;;;5030002;28;20507;-80
2023/12/11 10:23:21;;;;;;;0.77;0.77;;;;;;;;;;5016855;28;20093;-80
2023/12/11 10:25:48;;;;;;;0.93;0.60;;;;;;;;;;5002199;28;20062;-80
2023/12/11 10:28:16;;;;;;;1.48;0.70;;;;;;;;;;5020945;28;20122;-80
2023/12/11 10:30:59;;;;;;;3.63;0.70;;;;;;;;;;5038622;28;20504;-80
2023/12/11 10:33:26;;;;;;;0.40;0.40;;;;;;;;;;5014557;28;20037;-80
2023/12/11 10:36:08;;;;;;;0.50;0.50;;;;;;;;;;4999798;28;20092;-81
2023/12/11 10:38:33;;;;;;;0.50;0.50;;;;;;;;;;5035448;28;20048;-81
2023/12/11 10:40:59;;;;;;;0.50;0.50;;;;;;;;;;5017764;28;20042;-81
2023/12/11 10:43:24;;;;;;;0.28;0.28;;;;;;;;;;5012959;28;20379;-81
2023/12/11 10:45:49;;;;;;;0.60;0.35;;;;;;;;;;5027429;28;20053;-81
2023/12/11 10:48:15;;;;;;;0.40;0.40;;;;;;;;;;5019414;28;20454;-81
2023/12/11 10:50:40;;;;;;;0.40;0.40;;;;;;;;;;5003956;28;20034;-80
2023/12/11 10:53:07;;;;;;;0.98;0.40;;;;;;;;;;5017683;28;20041;-81
2023/12/11 10:55:33;;;;;;;0.40;0.40;;;;;;;;;;5020856;28;20127;-81
2023/12/11 10:58:01;;;;;;;0.30;0.30;;;;;;;;;;5028540;28;20037;-81
2023/12/11 11:00:30;;;;;;;0.63;0.50;;;;;;;;;;5021370;28;20524;-80
2023/12/11 11:02:56;;;;;;;0.40;0.40;;;;;;;;;;5024033;28;20561;-80
2023/12/11 11:05:22;;;;;;;0.32;0.32;;;;;;;;;;5035194;28;20054;-81
2023/12/11 11:08:01;;;;;;;0.40;0.40;;;;;;;;;;5021263;28;20045;-81
2023/12/11 11:10:34;;;;;;;0.30;0.30;;;;;;;;;;5025207;28;20112;-79
2023/12/11 11:13:05;;;;;;;0.30;0.30;;;;;;;;;;5031917;28;20048;-79
2023/12/11 11:15:31;;;;;;;0.32;0.30;;;;;;;;;;5005799;28;20029;-81
2023/12/11 11:18:04;;;;;;;0.45;0.45;;;;;;;;;;5018512;28;20037;-79
2023/12/11 11:20:31;;;;;;;1.35;0.60;;;;;;;;;;5020993;28;20393;-79
2023/12/11 11:23:15;;;;;;;3.42;0.55;;;;;;;;;;5019934;28;20045;-81
2023/12/11 11:25:51;;;;;;;0.40;0.40;;;;;;;;;;5018928;28;20088;-81
2023/12/11 11:28:35;;;;;;;0.38;0.38;;;;;;;;;;5009946;28;20038;-80
2023/12/11 11:31:00;;;;;;;0.30;0.30;;;;;;;;;;5015953;28;20088;-81
2023/12/11 11:33:43;;;;;;;0.35;0.35;;;;;;;;;;5026448;28;20124;-80
2023/12/11 11:36:08;;;;;;;0.30;0.30;;;;;;;;;;5007857;28;20399;-81
2023/12/11 11:38:53;;;;;;;0.55;0.55;;;;;;;;;;5018682;28;20022;-80
2023/12/11 11:41:36;;;;;;;0.28;0.28;;;;;;;;;;5015399;28;20030;-80
2023/12/11 11:44:07;;;;;;;0.30;0.30;;;;;;;;;;5017556;28;20038;-80
2023/12/11 11:46:52;;;;;;;0.40;0.40;;;;;;;;;;5023889;28;20183;-80
2023/12/11 11:49:31;;;;;;;0.82;0.52;;;;;;;;;;5037990;28;20034;-82
2023/12/11 11:51:58;;;;;;;0.55;0.45;;;;;;;;;;5025142;28;20045;-78
2023/12/11 11:54:24;;;;;;;0.68;0.50;;;;;;;;;;5019039;28;20169;-79
2023/12/11 11:56:50;;;;;;;0.50;0.50;;;;;;;;;;4997290;28;20084;-79
2023/12/11 11:59:16;;;;;;;0.50;0.50;;;;;;;;;;5011069;28;20506;-79
2023/12/11 12:01:49;;;;;;;0.30;0.30;;;;;;;;;;5026217;28;20026;-79
2023/12/11 12:04:35;;;;;;;0.50;0.50;;;;;;;;;;5015387;28;20109;-79
2023/12/11 12:07:03;;;;;;;0.47;0.47;;;;;;;;;;5020996;28;20037;-78
2023/12/11 12:09:30;;;;;;;0.40;0.40;;;;;;;;;;5001680;28;20081;-80
2023/12/11 12:11:56;;;;;;;0.22;0.22;;;;;;;;;;4997966;28;20084;-82
2023/12/11 12:14:21;;;;;;;1.55;0.40;;;;;;;;;;5004352;28;20034;-79
2023/12/11 12:16:47;;;;;;;0.30;0.30;;;;;;;;;;5018914;28;20030;-81
2023/12/11 12:19:15;;;;;;;0.40;0.40;;;;;;;;;;5024891;28;20144;-79
2023/12/11 12:21:51;;;;;;;0.55;0.30;;;;;;;;;;5020878;28;20026;-78
2023/12/11 12:24:19;;;;;;;0.25;0.25;;;;;;;;;;5015252;28;20026;-80
2023/12/11 12:26:46;;;;;;;0.32;0.25;;;;;;;;;;5031261;28;20045;-80
2023/12/11 12:29:13;;;;;;;0.22;0.22;;;;;;;;;;5030139;28;20044;-80
2023/12/11 12:31:39;;;;;;;0.30;0.30;;;;;;;;;;5017998;28;20185;-80
2023/12/11 12:34:06;;;;;;;0.30;0.30;;;;;;;;;;4991857;28;20045;-80
2023/12/11 12:36:31;;;;;;;0.30;0.30;;;;;;;;;;5031932;28;20184;-81
2023/12/11 12:38:57;;;;;;;0.30;0.30;;;;;;;;;;5038116;28;20049;-80
2023/12/11 12:41:24;;;;;;;0.40;0.20;;;;;;;;;;5038004;28;20132;-82
2023/12/11 12:43:49;;;;;;;0.20;0.20;;;;;;;;;;5039087;28;20057;-80
2023/12/11 12:46:15;;;;;;;0.30;0.30;;;;;;;;;;5003927;28;20057;-80
2023/12/11 12:48:40;;;;;;;0.52;0.30;;;;;;;;;;5016793;28;20033;-80
2023/12/11 12:51:10;;;;;;;0.30;0.30;;;;;;;;;;5036573;28;20551;-79
2023/12/11 12:53:49;;;;;;;0.30;0.30;;;;;;;;;;5016982;28;20030;-79
2023/12/11 12:56:16;;;;;;;0.73;0.50;;;;;;;;;;5017057;28;20049;-79
2023/12/11 12:58:42;;;;;;;0.30;0.30;;;;;;;;;;5023596;28;20038;-79
2023/12/11 13:01:07;;;;;;;0.63;0.63;;;;;;;;;;5031475;28;20065;-79
2023/12/11 13:03:33;;;;;;;0.50;0.50;;;;;;;;;;5020807;28;20026;-81
2023/12/11 13:05:59;;;;;;;0.30;0.30;;;;;;;;;;5017810;28;20512;-79
2023/12/11 13:08:24;;;;;;;0.30;0.30;;;;;;;;;;5026779;28;20090;-78
2023/12/11 13:10:56;;;;;;;0.32;0.32;;;;;;;;;;5004513;28;20444;-78
2023/12/11 13:13:25;;;;;;;0.20;0.20;;;;;;;;;;5021433;28;20076;-80
2023/12/11 13:15:51;;;;;;;0.28;0.28;;;;;;;;;;5010656;28;20037;-79
2023/12/11 13:18:17;;;;;;;0.40;0.40;;;;;;;;;;5013121;28;20014;-79
2023/12/11 13:20:42;;;;;;;1.95;0.50;;;;;;;;;;5004403;28;20072;-79
2023/12/11 13:23:07;;;;;;;0.30;0.30;;;;;;;;;;5015619;28;20410;-80
2023/12/11 13:25:33;;;;;;;0.20;0.20;;;;;;;;;;5014755;28;20080;-80
2023/12/11 13:27:58;;;;;;;0.30;0.30;;;;;;;;;;4998020;28;20038;-80
2023/12/11 13:30:23;;;;;;;0.50;0.50;;;;;;;;;;5015099;28;20030;-80
2023/12/11 13:32:49;;;;;;;0.20;0.20;;;;;;;;;;5015710;28;20122;-80
2023/12/11 13:35:14;;;;;;;0.30;0.30;;;;;;;;;;5015664;28;20153;-80
2023/12/11 13:37:40;;;;;;;0.20;0.20;;;;;;;;;;5015533;28;20037;-80
2023/12/11 13:40:10;;;;;;;0.30;0.30;;;;;;;;;;5015597;28;20034;-80
2023/12/11 13:42:36;;;;;;;0.35;0.35;;;;;;;;;;5015341;28;20026;-80
2023/12/11 13:45:01;;;;;;;0.47;0.40;;;;;;;;;;4999061;28;20516;-79
2023/12/11 13:47:28;;;;;;;0.20;0.20;;;;;;;;;;4998169;28;20049;-79
2023/12/11 13:49:53;;;;;;;0.20;0.20;;;;;;;;;;5015371;28;20100;-79
2023/12/11 13:52:18;;;;;;;0.40;0.40;;;;;;;;;;5015790;28;20034;-79
2023/12/11 13:54:44;;;;;;;0.25;0.25;;;;;;;;;;5015704;28;20109;-79
2023/12/11 13:57:09;;;;;;;0.20;0.20;;;;;;;;;;5015547;28;20281;-79
2023/12/11 13:59:34;;;;;;;0.20;0.20;;;;;;;;;;5016118;28;20040;-78
2023/12/11 14:01:59;;;;;;;0.30;0.30;;;;;;;;;;5015872;28;20026;-79
2023/12/11 14:04:26;;;;;;;2.78;0.30;;;;;;;;;;5014591;28;20092;-80
2023/12/11 14:06:51;;;;;;;0.30;0.30;;;;;;;;;;5015846;28;20087;-80
2023/12/11 14:09:16;;;;;;;0.30;0.30;;;;;;;;;;5019107;28;20077;-79
2023/12/11 14:11:41;;;;;;;0.25;0.25;;;;;;;;;;5019487;28;20021;-79
2023/12/11 14:14:07;;;;;;;2.53;0.70;;;;;;;;;;4998224;28;20121;-80
2023/12/11 14:16:32;;;;;;;0.20;0.20;;;;;;;;;;5000003;28;20486;-80
2023/12/11 14:18:57;;;;;;;0.52;0.38;;;;;;;;;;4981873;28;20038;-80
2023/12/11 14:21:22;;;;;;;0.25;0.25;;;;;;;;;;5038282;28;20420;-79
2023/12/11 14:23:48;;;;;;;0.30;0.30;;;;;;;;;;5024773;28;20061;-79
2023/12/11 14:26:13;;;;;;;0.20;0.20;;;;;;;;;;5028401;28;20042;-79
2023/12/11 14:28:38;;;;;;;0.30;0.30;;;;;;;;;;5025871;28;20033;-80
2023/12/11 14:31:09;;;;;;;0.38;0.35;;;;;;;;;;5018949;28;20037;-80
2023/12/11 14:33:34;;;;;;;0.30;0.30;;;;;;;;;;5018733;28;20079;-80
2023/12/11 14:36:02;;;;;;;0.30;0.30;;;;;;;;;;4999966;28;20042;-80
2023/12/11 14:38:27;;;;;;;0.30;0.30;;;;;;;;;;4999280;28;20030;-80
2023/12/11 14:40:52;;;;;;;0.40;0.40;;;;;;;;;;4982349;28;20422;-80